Aviation Digital Data Service (ADDS)

Output produced by METARs form (0221 UTC 16 January 2019)
found at http://www.aviationweather.gov/metar/data/
 
TISX 152322Z 1600/1624 06005KT P6SM VCSH FEW025 SCT050 
     FM161300 11013KT P6SM SCT025 
     FM161500 10012KT P6SM -RA SCT025 
     FM162100 11009KT P6SM FEW030
       
TIST 152322Z 1600/1624 07008KT P6SM VCSH SCT025 SCT050 
     FM161300 13012KT P6SM VCSH SCT025 
     FM161800 12010KT P6SM SCT030